sensor_id;sensor_type;location;lat;lon;timestamp;temperature;humidity
52187;DHT22;38161;53.020;6.598;2022-12-13T00:01:10;-4.20;99.90
52187;DHT22;38161;53.020;6.598;2022-12-13T00:03:35;-4.20;99.90
52187;DHT22;38161;53.020;6.598;2022-12-13T00:06:04;-4.20;99.90
52187;DHT22;38161;53.020;6.598;2022-12-13T00:08:30;-4.00;99.90
52187;DHT22;38161;53.020;6.598;2022-12-13T00:11:00;-4.30;99.90
52187;DHT22;38161;53.020;6.598;2022-12-13T00:13:27;-4.30;99.90
52187;DHT22;38161;53.020;6.598;2022-12-13T00:16:04;-4.30;99.90
52187;DHT22;38161;53.020;6.598;2022-12-13T00:18:30;-4.30;99.90
52187;DHT22;38161;53.020;6.598;2022-12-13T00:20:56;-3.10;99.90
52187;DHT22;38161;53.020;6.598;2022-12-13T00:23:21;-4.30;99.90
52187;DHT22;38161;53.020;6.598;2022-12-13T00:25:47;-4.20;99.90
52187;DHT22;38161;53.020;6.598;2022-12-13T00:28:13;-3.50;99.90
52187;DHT22;38161;53.020;6.598;2022-12-13T00:30:40;-4.20;99.90
52187;DHT22;38161;53.020;6.598;2022-12-13T00:33:06;-4.20;99.90
52187;DHT22;38161;53.020;6.598;2022-12-13T00:35:33;-4.10;99.90
52187;DHT22;38161;53.020;6.598;2022-12-13T00:37:58;-4.20;99.90
52187;DHT22;38161;53.020;6.598;2022-12-13T00:40:26;-4.20;99.90
52187;DHT22;38161;53.020;6.598;2022-12-13T00:42:52;-4.10;99.90
52187;DHT22;38161;53.020;6.598;2022-12-13T00:45:18;-4.20;99.90
52187;DHT22;38161;53.020;6.598;2022-12-13T00:47:45;-4.20;99.90
52187;DHT22;38161;53.020;6.598;2022-12-13T00:50:11;-4.20;99.90
52187;DHT22;38161;53.020;6.598;2022-12-13T00:52:36;-4.20;99.90
52187;DHT22;38161;53.020;6.598;2022-12-13T00:55:02;-4.20;99.90
52187;DHT22;38161;53.020;6.598;2022-12-13T00:57:28;-4.20;99.90
52187;DHT22;38161;53.020;6.598;2022-12-13T00:59:54;-4.20;99.90
52187;DHT22;38161;53.020;6.598;2022-12-13T01:02:20;-4.20;99.90
52187;DHT22;38161;53.020;6.598;2022-12-13T01:04:48;-4.20;99.90
52187;DHT22;38161;53.020;6.598;2022-12-13T01:07:14;-4.20;99.90
52187;DHT22;38161;53.020;6.598;2022-12-13T01:09:40;-4.30;99.90
52187;DHT22;38161;53.020;6.598;2022-12-13T01:12:07;-4.30;99.90
52187;DHT22;38161;53.020;6.598;2022-12-13T01:14:35;-4.10;99.90
52187;DHT22;38161;53.020;6.598;2022-12-13T01:17:00;-4.40;99.90
52187;DHT22;38161;53.020;6.598;2022-12-13T01:19:27;-4.40;99.90
52187;DHT22;38161;53.020;6.598;2022-12-13T01:22:00;-3.90;99.90
52187;DHT22;38161;53.020;6.598;2022-12-13T01:24:26;-4.40;99.90
52187;DHT22;38161;53.020;6.598;2022-12-13T01:26:53;-4.40;99.90
52187;DHT22;38161;53.020;6.598;2022-12-13T01:29:19;-4.50;99.90
52187;DHT22;38161;53.020;6.598;2022-12-13T01:31:46;-4.40;99.90
52187;DHT22;38161;53.020;6.598;2022-12-13T01:34:13;-4.40;99.90
52187;DHT22;38161;53.020;6.598;2022-12-13T01:36:41;-4.40;99.90
52187;DHT22;38161;53.020;6.598;2022-12-13T01:39:08;-4.50;99.90
52187;DHT22;38161;53.020;6.598;2022-12-13T01:41:34;-4.50;99.90
52187;DHT22;38161;53.020;6.598;2022-12-13T01:44:02;-4.50;99.90
52187;DHT22;38161;53.020;6.598;2022-12-13T01:46:37;-4.60;99.90
52187;DHT22;38161;53.020;6.598;2022-12-13T01:49:09;-4.60;99.90
52187;DHT22;38161;53.020;6.598;2022-12-13T01:51:57;-4.70;99.90
52187;DHT22;38161;53.020;6.598;2022-12-13T01:54:30;-4.80;99.90
52187;DHT22;38161;53.020;6.598;2022-12-13T01:56:57;-4.80;99.90
52187;DHT22;38161;53.020;6.598;2022-12-13T01:59:24;-4.80;99.90
52187;DHT22;38161;53.020;6.598;2022-12-13T02:01:51;-4.80;99.90
52187;DHT22;38161;53.020;6.598;2022-12-13T02:04:22;-4.80;99.90
52187;DHT22;38161;53.020;6.598;2022-12-13T02:06:51;-4.80;99.90
52187;DHT22;38161;53.020;6.598;2022-12-13T02:09:18;-4.80;99.90
52187;DHT22;38161;53.020;6.598;2022-12-13T02:11:45;-4.90;99.90
52187;DHT22;38161;53.020;6.598;2022-12-13T02:14:11;-5.00;99.90
52187;DHT22;38161;53.020;6.598;2022-12-13T02:22:32;-5.10;99.90
52187;DHT22;38161;53.020;6.598;2022-12-13T02:25:30;-5.10;99.90
52187;DHT22;38161;53.020;6.598;2022-12-13T02:30:52;-5.20;99.90
52187;DHT22;38161;53.020;6.598;2022-12-13T02:36:19;-5.10;99.90
52187;DHT22;38161;53.020;6.598;2022-12-13T02:39:00;-5.10;99.90
52187;DHT22;38161;53.020;6.598;2022-12-13T02:41:48;-5.20;99.90
52187;DHT22;38161;53.020;6.598;2022-12-13T02:44:26;-5.10;99.90
52187;DHT22;38161;53.020;6.598;2022-12-13T02:46:58;-5.20;99.90
52187;DHT22;38161;53.020;6.598;2022-12-13T02:49:29;-5.20;99.90
52187;DHT22;38161;53.020;6.598;2022-12-13T02:51:56;-5.20;99.90
52187;DHT22;38161;53.020;6.598;2022-12-13T02:54:23;-5.30;99.90
52187;DHT22;38161;53.020;6.598;2022-12-13T02:56:56;-5.20;99.90
52187;DHT22;38161;53.020;6.598;2022-12-13T02:59:26;-5.20;99.90
52187;DHT22;38161;53.020;6.598;2022-12-13T03:02:15;-5.30;99.90
52187;DHT22;38161;53.020;6.598;2022-12-13T03:05:03;-5.20;99.90
52187;DHT22;38161;53.020;6.598;2022-12-13T03:10:40;-5.30;99.90
52187;DHT22;38161;53.020;6.598;2022-12-13T03:13:13;-5.30;99.90
52187;DHT22;38161;53.020;6.598;2022-12-13T03:18:37;-5.30;99.90
52187;DHT22;38161;53.020;6.598;2022-12-13T03:21:05;-5.20;99.90
52187;DHT22;38161;53.020;6.598;2022-12-13T03:23:32;-5.20;99.90
52187;DHT22;38161;53.020;6.598;2022-12-13T03:26:03;-4.30;99.90
52187;DHT22;38161;53.020;6.598;2022-12-13T03:28:30;-5.10;99.90
52187;DHT22;38161;53.020;6.598;2022-12-13T03:30:56;-5.10;99.90
52187;DHT22;38161;53.020;6.598;2022-12-13T03:33:22;-5.10;99.90
52187;DHT22;38161;53.020;6.598;2022-12-13T03:35:48;-5.00;99.90
52187;DHT22;38161;53.020;6.598;2022-12-13T03:38:15;-5.10;99.90
52187;DHT22;38161;53.020;6.598;2022-12-13T03:40:41;-5.10;99.90
52187;DHT22;38161;53.020;6.598;2022-12-13T03:43:07;-5.10;99.90
52187;DHT22;38161;53.020;6.598;2022-12-13T03:45:33;-5.20;99.90
52187;DHT22;38161;53.020;6.598;2022-12-13T03:47:58;-5.20;99.90
52187;DHT22;38161;53.020;6.598;2022-12-13T03:50:24;-5.20;99.90
52187;DHT22;38161;53.020;6.598;2022-12-13T03:52:50;-5.20;99.90
52187;DHT22;38161;53.020;6.598;2022-12-13T03:55:17;-5.30;99.90
52187;DHT22;38161;53.020;6.598;2022-12-13T03:57:43;-5.30;99.90
52187;DHT22;38161;53.020;6.598;2022-12-13T04:00:09;-5.30;99.90
52187;DHT22;38161;53.020;6.598;2022-12-13T04:02:35;-5.40;99.90
52187;DHT22;38161;53.020;6.598;2022-12-13T04:05:00;-5.40;99.90
52187;DHT22;38161;53.020;6.598;2022-12-13T04:07:26;-5.50;99.90
52187;DHT22;38161;53.020;6.598;2022-12-13T04:09:52;-5.50;99.90
52187;DHT22;38161;53.020;6.598;2022-12-13T04:12:18;-5.40;99.90
52187;DHT22;38161;53.020;6.598;2022-12-13T04:15:03;-5.40;99.90
52187;DHT22;38161;53.020;6.598;2022-12-13T04:17:28;-5.40;99.90
52187;DHT22;38161;53.020;6.598;2022-12-13T04:19:54;-5.50;99.90
52187;DHT22;38161;53.020;6.598;2022-12-13T04:22:20;-5.50;99.90
52187;DHT22;38161;53.020;6.598;2022-12-13T04:24:48;-5.50;99.90
52187;DHT22;38161;53.020;6.598;2022-12-13T04:27:14;-5.50;99.90
52187;DHT22;38161;53.020;6.598;2022-12-13T04:29:40;-5.50;99.90
52187;DHT22;38161;53.020;6.598;2022-12-13T04:32:05;-5.50;99.90
52187;DHT22;38161;53.020;6.598;2022-12-13T04:34:31;-5.50;99.90
52187;DHT22;38161;53.020;6.598;2022-12-13T04:36:58;-3.60;99.90
52187;DHT22;38161;53.020;6.598;2022-12-13T04:39:23;-5.50;99.90
52187;DHT22;38161;53.020;6.598;2022-12-13T04:41:51;-5.50;99.90
52187;DHT22;38161;53.020;6.598;2022-12-13T04:44:16;-5.50;99.90
52187;DHT22;38161;53.020;6.598;2022-12-13T04:46:42;-4.70;99.90
52187;DHT22;38161;53.020;6.598;2022-12-13T04:49:08;-5.50;99.90
52187;DHT22;38161;53.020;6.598;2022-12-13T04:51:34;-5.50;99.90
52187;DHT22;38161;53.020;6.598;2022-12-13T04:54:02;-5.50;99.90
52187;DHT22;38161;53.020;6.598;2022-12-13T04:56:28;-5.50;99.90
52187;DHT22;38161;53.020;6.598;2022-12-13T04:58:54;-5.50;99.90
52187;DHT22;38161;53.020;6.598;2022-12-13T05:01:19;-5.60;99.90
52187;DHT22;38161;53.020;6.598;2022-12-13T05:03:45;-5.60;99.90
52187;DHT22;38161;53.020;6.598;2022-12-13T05:06:13;-4.40;99.90
52187;DHT22;38161;53.020;6.598;2022-12-13T05:08:40;-5.60;99.90
52187;DHT22;38161;53.020;6.598;2022-12-13T05:11:07;-5.60;99.90
52187;DHT22;38161;53.020;6.598;2022-12-13T05:13:33;-5.60;99.90
52187;DHT22;38161;53.020;6.598;2022-12-13T05:16:04;-5.60;99.90
52187;DHT22;38161;53.020;6.598;2022-12-13T05:18:34;-5.60;99.90
52187;DHT22;38161;53.020;6.598;2022-12-13T05:21:05;-5.70;99.90
52187;DHT22;38161;53.020;6.598;2022-12-13T05:23:31;-5.80;99.90
52187;DHT22;38161;53.020;6.598;2022-12-13T05:25:57;-5.80;99.90
52187;DHT22;38161;53.020;6.598;2022-12-13T05:28:24;-5.80;99.90
52187;DHT22;38161;53.020;6.598;2022-12-13T05:30:53;-5.80;99.90
52187;DHT22;38161;53.020;6.598;2022-12-13T05:33:19;-5.80;99.90
52187;DHT22;38161;53.020;6.598;2022-12-13T05:35:45;-5.80;99.90
52187;DHT22;38161;53.020;6.598;2022-12-13T05:38:11;-5.80;99.90
52187;DHT22;38161;53.020;6.598;2022-12-13T05:40:36;-5.80;99.90
52187;DHT22;38161;53.020;6.598;2022-12-13T05:43:02;-5.70;99.90
52187;DHT22;38161;53.020;6.598;2022-12-13T05:45:31;-5.80;99.90
52187;DHT22;38161;53.020;6.598;2022-12-13T05:47:57;-5.80;99.90
52187;DHT22;38161;53.020;6.598;2022-12-13T05:50:23;-5.80;99.90
52187;DHT22;38161;53.020;6.598;2022-12-13T05:52:49;-5.80;99.90
52187;DHT22;38161;53.020;6.598;2022-12-13T05:55:15;-5.80;99.90
52187;DHT22;38161;53.020;6.598;2022-12-13T05:57:41;-5.70;99.90
52187;DHT22;38161;53.020;6.598;2022-12-13T06:00:08;-5.70;99.90
52187;DHT22;38161;53.020;6.598;2022-12-13T06:02:42;-5.70;99.90
52187;DHT22;38161;53.020;6.598;2022-12-13T06:05:09;-5.70;99.90
52187;DHT22;38161;53.020;6.598;2022-12-13T06:07:35;-5.70;99.90
52187;DHT22;38161;53.020;6.598;2022-12-13T06:10:02;-5.70;99.90
52187;DHT22;38161;53.020;6.598;2022-12-13T06:12:27;-5.70;99.90
52187;DHT22;38161;53.020;6.598;2022-12-13T06:14:53;-5.70;99.90
52187;DHT22;38161;53.020;6.598;2022-12-13T06:17:19;-5.70;99.90
52187;DHT22;38161;53.020;6.598;2022-12-13T06:19:46;-5.70;99.90
52187;DHT22;38161;53.020;6.598;2022-12-13T06:22:12;-5.70;99.90
52187;DHT22;38161;53.020;6.598;2022-12-13T06:24:37;-5.60;99.90
52187;DHT22;38161;53.020;6.598;2022-12-13T06:27:03;-5.60;99.90
52187;DHT22;38161;53.020;6.598;2022-12-13T06:29:30;-5.60;99.90
52187;DHT22;38161;53.020;6.598;2022-12-13T06:31:58;-5.60;99.90
52187;DHT22;38161;53.020;6.598;2022-12-13T06:34:24;-5.50;99.90
52187;DHT22;38161;53.020;6.598;2022-12-13T06:36:50;-5.60;99.90
52187;DHT22;38161;53.020;6.598;2022-12-13T06:39:16;-5.60;99.90
52187;DHT22;38161;53.020;6.598;2022-12-13T06:41:41;-5.50;99.90
52187;DHT22;38161;53.020;6.598;2022-12-13T06:44:07;-5.50;99.90
52187;DHT22;38161;53.020;6.598;2022-12-13T06:46:33;-5.50;99.90
52187;DHT22;38161;53.020;6.598;2022-12-13T06:48:59;-5.60;99.90
52187;DHT22;38161;53.020;6.598;2022-12-13T06:51:26;-5.60;99.90
52187;DHT22;38161;53.020;6.598;2022-12-13T06:53:51;-5.30;99.90
52187;DHT22;38161;53.020;6.598;2022-12-13T06:56:17;-5.60;99.90
52187;DHT22;38161;53.020;6.598;2022-12-13T06:58:43;-5.60;99.90
52187;DHT22;38161;53.020;6.598;2022-12-13T07:01:13;-5.60;99.90
52187;DHT22;38161;53.020;6.598;2022-12-13T07:03:40;-5.60;99.90
52187;DHT22;38161;53.020;6.598;2022-12-13T07:06:12;-5.20;99.90
52187;DHT22;38161;53.020;6.598;2022-12-13T07:08:39;-5.70;99.90
52187;DHT22;38161;53.020;6.598;2022-12-13T07:11:05;-5.70;99.90
52187;DHT22;38161;53.020;6.598;2022-12-13T07:13:31;-5.70;99.90
52187;DHT22;38161;53.020;6.598;2022-12-13T07:15:59;-5.70;99.90
52187;DHT22;38161;53.020;6.598;2022-12-13T07:18:25;-5.70;99.90
52187;DHT22;38161;53.020;6.598;2022-12-13T07:20:51;-5.60;99.90
52187;DHT22;38161;53.020;6.598;2022-12-13T07:23:16;-5.70;99.90
52187;DHT22;38161;53.020;6.598;2022-12-13T07:25:49;-5.70;99.90
52187;DHT22;38161;53.020;6.598;2022-12-13T07:28:15;-5.50;99.90
52187;DHT22;38161;53.020;6.598;2022-12-13T07:30:40;-5.60;99.90
52187;DHT22;38161;53.020;6.598;2022-12-13T07:33:06;-5.60;99.90
52187;DHT22;38161;53.020;6.598;2022-12-13T07:35:33;-5.60;99.90
52187;DHT22;38161;53.020;6.598;2022-12-13T07:37:59;-5.60;99.90
52187;DHT22;38161;53.020;6.598;2022-12-13T07:40:25;-5.60;99.90
52187;DHT22;38161;53.020;6.598;2022-12-13T07:42:52;-5.60;99.90
52187;DHT22;38161;53.020;6.598;2022-12-13T07:45:18;-5.60;99.90
52187;DHT22;38161;53.020;6.598;2022-12-13T07:47:44;-5.70;99.90
52187;DHT22;38161;53.020;6.598;2022-12-13T07:50:10;-5.70;99.90
52187;DHT22;38161;53.020;6.598;2022-12-13T07:52:36;-5.60;99.90
52187;DHT22;38161;53.020;6.598;2022-12-13T07:55:02;-5.70;99.90
52187;DHT22;38161;53.020;6.598;2022-12-13T07:57:29;-5.70;99.90
52187;DHT22;38161;53.020;6.598;2022-12-13T07:59:55;-5.70;99.90
52187;DHT22;38161;53.020;6.598;2022-12-13T08:02:20;-5.70;99.90
52187;DHT22;38161;53.020;6.598;2022-12-13T08:04:46;-5.70;99.90
52187;DHT22;38161;53.020;6.598;2022-12-13T08:07:12;-5.70;99.90
52187;DHT22;38161;53.020;6.598;2022-12-13T08:09:37;-5.50;99.90
52187;DHT22;38161;53.020;6.598;2022-12-13T08:12:03;-5.60;99.90
52187;DHT22;38161;53.020;6.598;2022-12-13T08:14:30;-5.60;99.90
52187;DHT22;38161;53.020;6.598;2022-12-13T08:16:56;-5.50;99.90
52187;DHT22;38161;53.020;6.598;2022-12-13T08:19:22;-5.50;99.90
52187;DHT22;38161;53.020;6.598;2022-12-13T08:21:48;-5.50;99.90
52187;DHT22;38161;53.020;6.598;2022-12-13T08:24:19;-5.50;99.90
52187;DHT22;38161;53.020;6.598;2022-12-13T08:26:45;-5.40;99.90
52187;DHT22;38161;53.020;6.598;2022-12-13T08:29:11;-5.40;99.90
52187;DHT22;38161;53.020;6.598;2022-12-13T08:31:38;-5.30;99.90
52187;DHT22;38161;53.020;6.598;2022-12-13T08:34:04;-5.10;99.90
52187;DHT22;38161;53.020;6.598;2022-12-13T08:36:29;-5.30;99.90
52187;DHT22;38161;53.020;6.598;2022-12-13T08:38:56;-5.20;99.90
52187;DHT22;38161;53.020;6.598;2022-12-13T08:41:23;-5.20;99.90
52187;DHT22;38161;53.020;6.598;2022-12-13T08:43:49;-2.80;99.90
52187;DHT22;38161;53.020;6.598;2022-12-13T08:46:15;-5.10;99.90
52187;DHT22;38161;53.020;6.598;2022-12-13T08:48:41;-5.00;99.90
52187;DHT22;38161;53.020;6.598;2022-12-13T08:51:09;-5.00;99.90
52187;DHT22;38161;53.020;6.598;2022-12-13T08:53:37;-4.90;99.90
52187;DHT22;38161;53.020;6.598;2022-12-13T08:56:05;-4.90;99.90
52187;DHT22;38161;53.020;6.598;2022-12-13T08:58:32;-4.80;99.90
52187;DHT22;38161;53.020;6.598;2022-12-13T09:00:58;-4.80;99.90
52187;DHT22;38161;53.020;6.598;2022-12-13T09:03:24;-4.70;99.90
52187;DHT22;38161;53.020;6.598;2022-12-13T09:05:50;-4.70;99.90
52187;DHT22;38161;53.020;6.598;2022-12-13T09:08:17;-4.60;99.90
52187;DHT22;38161;53.020;6.598;2022-12-13T09:10:42;-4.50;99.90
52187;DHT22;38161;53.020;6.598;2022-12-13T09:13:08;-4.50;99.90
52187;DHT22;38161;53.020;6.598;2022-12-13T09:15:37;-4.50;99.90
52187;DHT22;38161;53.020;6.598;2022-12-13T09:18:04;-4.40;99.90
52187;DHT22;38161;53.020;6.598;2022-12-13T09:20:29;-4.40;99.90
52187;DHT22;38161;53.020;6.598;2022-12-13T09:22:55;-4.30;99.90
52187;DHT22;38161;53.020;6.598;2022-12-13T09:25:21;-4.30;99.90
52187;DHT22;38161;53.020;6.598;2022-12-13T09:27:47;-4.20;99.90
52187;DHT22;38161;53.020;6.598;2022-12-13T09:30:13;-4.10;99.90
52187;DHT22;38161;53.020;6.598;2022-12-13T09:32:40;-4.10;99.90
52187;DHT22;38161;53.020;6.598;2022-12-13T09:35:07;-4.00;99.90
52187;DHT22;38161;53.020;6.598;2022-12-13T09:37:33;-4.00;99.90
52187;DHT22;38161;53.020;6.598;2022-12-13T09:39:58;-3.90;99.90
52187;DHT22;38161;53.020;6.598;2022-12-13T09:42:28;-3.80;99.90
52187;DHT22;38161;53.020;6.598;2022-12-13T09:45:00;-3.70;99.90
52187;DHT22;38161;53.020;6.598;2022-12-13T09:47:36;-3.50;99.90
52187;DHT22;38161;53.020;6.598;2022-12-13T09:50:12;-3.30;99.90
52187;DHT22;38161;53.020;6.598;2022-12-13T09:52:40;-3.10;99.90
52187;DHT22;38161;53.020;6.598;2022-12-13T09:57:45;-2.70;99.90
52187;DHT22;38161;53.020;6.598;2022-12-13T10:00:15;-2.40;99.90
52187;DHT22;38161;53.020;6.598;2022-12-13T10:02:55;-2.00;99.90
52187;DHT22;38161;53.020;6.598;2022-12-13T10:07:53;-0.70;99.90
52187;DHT22;38161;53.020;6.598;2022-12-13T10:10:20;-0.60;99.90
52187;DHT22;38161;53.020;6.598;2022-12-13T10:12:51;0.00;99.90
52187;DHT22;38161;53.020;6.598;2022-12-13T10:15:19;0.10;99.90
52187;DHT22;38161;53.020;6.598;2022-12-13T10:17:45;0.30;99.90
52187;DHT22;38161;53.020;6.598;2022-12-13T10:20:20;0.70;99.90
52187;DHT22;38161;53.020;6.598;2022-12-13T10:22:47;1.30;99.90
52187;DHT22;38161;53.020;6.598;2022-12-13T10:25:13;1.50;99.90
52187;DHT22;38161;53.020;6.598;2022-12-13T10:27:46;1.60;99.90
52187;DHT22;38161;53.020;6.598;2022-12-13T10:32:53;1.90;99.90
52187;DHT22;38161;53.020;6.598;2022-12-13T10:35:23;2.20;99.90
52187;DHT22;38161;53.020;6.598;2022-12-13T10:37:50;2.50;99.90
52187;DHT22;38161;53.020;6.598;2022-12-13T10:40:42;3.10;99.90
52187;DHT22;38161;53.020;6.598;2022-12-13T10:43:14;2.90;99.90
52187;DHT22;38161;53.020;6.598;2022-12-13T10:45:41;3.30;99.90
52187;DHT22;38161;53.020;6.598;2022-12-13T10:48:19;3.70;99.90
52187;DHT22;38161;53.020;6.598;2022-12-13T10:51:13;3.70;99.90
52187;DHT22;38161;53.020;6.598;2022-12-13T10:56:20;4.00;99.90
52187;DHT22;38161;53.020;6.598;2022-12-13T10:59:09;4.40;99.90
52187;DHT22;38161;53.020;6.598;2022-12-13T11:01:36;4.60;99.90
52187;DHT22;38161;53.020;6.598;2022-12-13T11:06:46;5.30;99.90
52187;DHT22;38161;53.020;6.598;2022-12-13T11:11:53;5.60;99.90
52187;DHT22;38161;53.020;6.598;2022-12-13T11:14:22;5.70;99.90
52187;DHT22;38161;53.020;6.598;2022-12-13T11:16:51;5.90;99.90
52187;DHT22;38161;53.020;6.598;2022-12-13T11:19:21;5.70;99.90
52187;DHT22;38161;53.020;6.598;2022-12-13T11:21:49;5.60;99.90
52187;DHT22;38161;53.020;6.598;2022-12-13T11:24:32;5.90;99.90
52187;DHT22;38161;53.020;6.598;2022-12-13T11:33:13;5.20;99.90
52187;DHT22;38161;53.020;6.598;2022-12-13T11:38:44;4.70;99.90
52187;DHT22;38161;53.020;6.598;2022-12-13T11:41:23;4.60;99.90
52187;DHT22;38161;53.020;6.598;2022-12-13T11:44:08;4.90;99.90
52187;DHT22;38161;53.020;6.598;2022-12-13T11:46:45;5.10;99.90
52187;DHT22;38161;53.020;6.598;2022-12-13T11:49:17;4.90;99.90
52187;DHT22;38161;53.020;6.598;2022-12-13T11:51:59;5.00;99.90
52187;DHT22;38161;53.020;6.598;2022-12-13T12:00:04;4.80;99.90
52187;DHT22;38161;53.020;6.598;2022-12-13T12:02:37;4.60;99.90
52187;DHT22;38161;53.020;6.598;2022-12-13T12:05:27;4.50;99.90
52187;DHT22;38161;53.020;6.598;2022-12-13T12:08:32;4.30;99.90
52187;DHT22;38161;53.020;6.598;2022-12-13T12:11:21;4.10;99.90
52187;DHT22;38161;53.020;6.598;2022-12-13T12:13:58;3.90;99.90
52187;DHT22;38161;53.020;6.598;2022-12-13T12:19:17;3.20;99.90
52187;DHT22;38161;53.020;6.598;2022-12-13T12:22:51;3.00;99.90
52187;DHT22;38161;53.020;6.598;2022-12-13T12:25:05;2.80;99.90
52187;DHT22;38161;53.020;6.598;2022-12-13T12:30:47;2.50;99.90
52187;DHT22;38161;53.020;6.598;2022-12-13T12:36:12;2.10;99.90
52187;DHT22;38161;53.020;6.598;2022-12-13T12:41:31;1.80;99.90
52187;DHT22;38161;53.020;6.598;2022-12-13T12:44:04;1.80;99.90
52187;DHT22;38161;53.020;6.598;2022-12-13T12:49:23;1.70;99.90
52187;DHT22;38161;53.020;6.598;2022-12-13T12:52:14;1.60;99.90
52187;DHT22;38161;53.020;6.598;2022-12-13T12:55:13;1.50;99.90
52187;DHT22;38161;53.020;6.598;2022-12-13T13:00:22;1.30;99.90
52187;DHT22;38161;53.020;6.598;2022-12-13T13:03:13;1.20;99.90
52187;DHT22;38161;53.020;6.598;2022-12-13T13:08:27;1.10;99.90
52187;DHT22;38161;53.020;6.598;2022-12-13T13:10:57;0.90;99.90
52187;DHT22;38161;53.020;6.598;2022-12-13T13:16:34;0.80;99.90
52187;DHT22;38161;53.020;6.598;2022-12-13T13:21:59;1.00;99.90
52187;DHT22;38161;53.020;6.598;2022-12-13T13:24:27;0.50;99.90
52187;DHT22;38161;53.020;6.598;2022-12-13T13:26:57;0.70;99.90
52187;DHT22;38161;53.020;6.598;2022-12-13T13:34:24;0.30;99.90
52187;DHT22;38161;53.020;6.598;2022-12-13T13:36:54;0.20;99.90
52187;DHT22;38161;53.020;6.598;2022-12-13T13:42:22;0.10;99.90
52187;DHT22;38161;53.020;6.598;2022-12-13T13:58:23;-0.20;99.90
52187;DHT22;38161;53.020;6.598;2022-12-13T14:10:02;-0.40;99.90
52187;DHT22;38161;53.020;6.598;2022-12-13T14:31:34;-0.70;99.90
52187;DHT22;38161;53.020;6.598;2022-12-13T14:34:03;-0.70;99.90
52187;DHT22;38161;53.020;6.598;2022-12-13T14:36:34;-0.40;99.90
52187;DHT22;38161;53.020;6.598;2022-12-13T14:39:04;-0.70;99.90
52187;DHT22;38161;53.020;6.598;2022-12-13T14:41:31;-0.80;99.90
52187;DHT22;38161;53.020;6.598;2022-12-13T14:44:21;-0.80;99.90
52187;DHT22;38161;53.020;6.598;2022-12-13T14:49:20;-0.90;99.90
52187;DHT22;38161;53.020;6.598;2022-12-13T14:51:47;-0.90;99.90
52187;DHT22;38161;53.020;6.598;2022-12-13T14:54:20;-0.90;99.90
52187;DHT22;38161;53.020;6.598;2022-12-13T14:56:56;-0.50;99.90
52187;DHT22;38161;53.020;6.598;2022-12-13T14:59:22;-1.00;99.90
52187;DHT22;38161;53.020;6.598;2022-12-13T15:01:56;-1.00;99.90
52187;DHT22;38161;53.020;6.598;2022-12-13T15:04:34;-1.10;99.90
52187;DHT22;38161;53.020;6.598;2022-12-13T15:07:17;-1.10;99.90
52187;DHT22;38161;53.020;6.598;2022-12-13T15:09:46;-1.20;99.90
52187;DHT22;38161;53.020;6.598;2022-12-13T15:12:18;-1.20;99.90
52187;DHT22;38161;53.020;6.598;2022-12-13T15:14:46;-1.20;99.90
52187;DHT22;38161;53.020;6.598;2022-12-13T15:19:50;-1.30;99.90
52187;DHT22;38161;53.020;6.598;2022-12-13T15:22:17;-1.30;99.90
52187;DHT22;38161;53.020;6.598;2022-12-13T15:24:43;-1.40;99.90
52187;DHT22;38161;53.020;6.598;2022-12-13T15:27:18;-0.30;99.90
52187;DHT22;38161;53.020;6.598;2022-12-13T15:29:45;-1.50;99.90
52187;DHT22;38161;53.020;6.598;2022-12-13T15:32:16;-1.60;99.90
52187;DHT22;38161;53.020;6.598;2022-12-13T15:34:46;-1.60;99.90
52187;DHT22;38161;53.020;6.598;2022-12-13T15:39:43;-1.70;99.90
52187;DHT22;38161;53.020;6.598;2022-12-13T15:42:30;-1.70;99.90
52187;DHT22;38161;53.020;6.598;2022-12-13T15:45:00;-1.80;99.90
52187;DHT22;38161;53.020;6.598;2022-12-13T15:47:26;-1.80;99.90
52187;DHT22;38161;53.020;6.598;2022-12-13T15:50:00;-1.80;99.90
52187;DHT22;38161;53.020;6.598;2022-12-13T15:52:37;-1.90;99.90
52187;DHT22;38161;53.020;6.598;2022-12-13T15:57:53;-2.00;99.90
52187;DHT22;38161;53.020;6.598;2022-12-13T16:00:26;-2.10;99.90
52187;DHT22;38161;53.020;6.598;2022-12-13T16:02:56;-2.20;99.90
52187;DHT22;38161;53.020;6.598;2022-12-13T16:05:30;-2.20;99.90
52187;DHT22;38161;53.020;6.598;2022-12-13T16:08:00;-2.30;99.90
52187;DHT22;38161;53.020;6.598;2022-12-13T16:10:27;-2.20;99.90
52187;DHT22;38161;53.020;6.598;2022-12-13T16:13:23;-2.40;99.90
52187;DHT22;38161;53.020;6.598;2022-12-13T16:15:51;-2.40;99.90
52187;DHT22;38161;53.020;6.598;2022-12-13T16:18:24;-2.50;99.90
52187;DHT22;38161;53.020;6.598;2022-12-13T16:20:53;-2.50;99.90
52187;DHT22;38161;53.020;6.598;2022-12-13T16:23:19;-3.40;99.90
52187;DHT22;38161;53.020;6.598;2022-12-13T16:25:45;-2.60;99.90
52187;DHT22;38161;53.020;6.598;2022-12-13T16:28:15;-2.50;99.90
52187;DHT22;38161;53.020;6.598;2022-12-13T16:31:01;-2.60;99.90
52187;DHT22;38161;53.020;6.598;2022-12-13T16:33:28;-2.60;99.90
52187;DHT22;38161;53.020;6.598;2022-12-13T16:35:54;-2.50;99.90
52187;DHT22;38161;53.020;6.598;2022-12-13T16:38:20;-2.50;99.90
52187;DHT22;38161;53.020;6.598;2022-12-13T16:40:47;-2.60;99.90
52187;DHT22;38161;53.020;6.598;2022-12-13T16:43:19;-2.60;99.90
52187;DHT22;38161;53.020;6.598;2022-12-13T16:45:50;-1.90;99.90
52187;DHT22;38161;53.020;6.598;2022-12-13T16:48:17;-2.70;99.90
52187;DHT22;38161;53.020;6.598;2022-12-13T16:50:45;-2.80;99.90
52187;DHT22;38161;53.020;6.598;2022-12-13T16:53:12;-2.80;99.90
52187;DHT22;38161;53.020;6.598;2022-12-13T16:55:37;-2.90;99.90
52187;DHT22;38161;53.020;6.598;2022-12-13T16:58:11;-2.90;99.90
52187;DHT22;38161;53.020;6.598;2022-12-13T17:00:38;-2.90;99.90
52187;DHT22;38161;53.020;6.598;2022-12-13T17:03:05;-3.00;99.90
52187;DHT22;38161;53.020;6.598;2022-12-13T17:05:32;-2.70;99.90
52187;DHT22;38161;53.020;6.598;2022-12-13T17:07:58;-3.10;99.90
52187;DHT22;38161;53.020;6.598;2022-12-13T17:10:24;-3.10;99.90
52187;DHT22;38161;53.020;6.598;2022-12-13T17:12:51;-3.10;99.90
52187;DHT22;38161;53.020;6.598;2022-12-13T17:15:18;-3.20;99.90
52187;DHT22;38161;53.020;6.598;2022-12-13T17:17:44;-3.20;99.90
52187;DHT22;38161;53.020;6.598;2022-12-13T17:20:15;-3.20;99.90
52187;DHT22;38161;53.020;6.598;2022-12-13T17:22:45;-2.90;99.90
52187;DHT22;38161;53.020;6.598;2022-12-13T17:25:11;-3.30;99.90
52187;DHT22;38161;53.020;6.598;2022-12-13T17:27:38;-3.30;99.90
52187;DHT22;38161;53.020;6.598;2022-12-13T17:30:05;-3.40;99.90
52187;DHT22;38161;53.020;6.598;2022-12-13T17:32:33;-3.40;99.90
52187;DHT22;38161;53.020;6.598;2022-12-13T17:34:59;-3.50;99.90
52187;DHT22;38161;53.020;6.598;2022-12-13T17:37:24;-3.50;99.90
52187;DHT22;38161;53.020;6.598;2022-12-13T17:39:50;-3.40;99.90
52187;DHT22;38161;53.020;6.598;2022-12-13T17:42:16;-3.50;99.90
52187;DHT22;38161;53.020;6.598;2022-12-13T17:44:42;-3.50;99.90
52187;DHT22;38161;53.020;6.598;2022-12-13T17:47:09;-3.60;99.90
52187;DHT22;38161;53.020;6.598;2022-12-13T17:49:34;-3.60;99.90
52187;DHT22;38161;53.020;6.598;2022-12-13T17:52:00;-3.60;99.90
52187;DHT22;38161;53.020;6.598;2022-12-13T17:54:26;-3.60;99.90
52187;DHT22;38161;53.020;6.598;2022-12-13T17:56:53;-3.60;99.90
52187;DHT22;38161;53.020;6.598;2022-12-13T17:59:19;-3.60;99.90